This is the latest recevied weather packets stored in our database for station/object IW1RID-3. If no packets are shown the sender has not sent any weather packets the latest 10 day(s).
| Time | Temp. | Humidity | Pressure | Rain* | Wind** | Luminosity | Snow |
|---|---|---|---|---|---|---|---|
| 1777631439 | 19.44° C | 47% | 1084.2 hPa | - | - | - | - |
| 1777630232 | 19.44° C | 46% | 1084.3 hPa | - | - | - | - |
| 1777629029 | 17.78° C | 49% | 1084.4 hPa | - | - | - | - |
| 1777627823 | 18.33° C | 49% | 1084.4 hPa | - | - | - | - |
| 1777626619 | 18.33° C | 49% | 1084.3 hPa | - | - | - | - |
| 1777625412 | 18.33° C | 52% | 1084.2 hPa | - | - | - | - |
| 1777624206 | 17.22° C | 54% | 1084.1 hPa | - | - | - | - |
| 1777623001 | 17.22° C | 54% | 1083.9 hPa | - | - | - | - |
| 1777621795 | 16.67° C | 56% | 1083.6 hPa | - | - | - | - |
| 1777620591 | 16.11° C | 57% | 1083.7 hPa | - | - | - | - |
| 1777619384 | 15° C | 61% | 1083.5 hPa | - | - | - | - |
| 1777618179 | 13.33° C | 60% | 1083.5 hPa | - | - | - | - |
| 1777616974 | 12.78° C | 60% | 1083.5 hPa | - | - | - | - |
| 1777615770 | 11.67° C | 67% | 1083.5 hPa | - | - | - | - |
| 1777614564 | 10.56° C | 69% | 1083.3 hPa | - | - | - | - |
| 1777613358 | 10.56° C | 70% | 1083 hPa | - | - | - | - |
| 1777612153 | 11.11° C | 64% | 1082.7 hPa | - | - | - | - |
| 1777610948 | 10.56° C | 67% | 1082.4 hPa | - | - | - | - |
| 1777609743 | 10.56° C | 70% | 1082.1 hPa | - | - | - | - |
| 1777608538 | 11.11° C | 68% | 1081.9 hPa | - | - | - | - |
| 1777607334 | 10.56° C | 71% | 1081.8 hPa | - | - | - | - |
| 1777606130 | 10.56° C | 72% | 1081.7 hPa | - | - | - | - |
| 1777604924 | 11.11° C | 69% | 1081.6 hPa | - | - | - | - |
| 1777603720 | 11.11° C | 71% | 1081.4 hPa | - | - | - | - |
| 1777602514 | 11.11° C | 72% | 1081.2 hPa | - | - | - | - |
* Rain since midnight (hover to see other rain measurements)
** Current wind speed in m/s (hover to see current wind gust speed)